Time;durP1;ratioP1;P1;durP2;ratioP2;P2;SDS_P1;SDS_P2;PMS_P1;PMS_P2;Temp;Humidity;BMP_temperature;BMP_pressure;BME280_temperature;BME280_humidity;BME280_pressure;Samples;Min_cycle;Max_cycle;Signal;HPM_P1;HPM_P2
2022/04/30 00:00:42;;;;;;;9.700001;6.799999;;;;;;;7.2;51.38281;95569.78;;;;
2022/04/30 00:01:42;;;;;;;9.700001;6.799999;;;;;;;7.2;51.38281;95569.78;;;;
2022/04/30 00:02:43;;;;;;;9.700001;6.799999;;;;;;;7.2;51.38281;95569.78;;;;
2022/04/30 00:03:43;;;;;;;9.700001;6.799999;;;;;;;7.2;51.38281;95569.78;;;;
2022/04/30 00:04:44;;;;;;;10.7;7.65;;;;;;;7.22;51.50195;95576.2;;;;
2022/04/30 00:05:46;;;;;;;10.7;7.65;;;;;;;7.22;51.50195;95576.2;;;;
2022/04/30 00:06:47;;;;;;;10.7;7.65;;;;;;;7.22;51.50195;95576.2;;;;
2022/04/30 00:07:48;;;;;;;10.7;7.65;;;;;;;7.22;51.50195;95576.2;;;;
2022/04/30 00:08:48;;;;;;;10.7;7.65;;;;;;;7.22;51.50195;95576.2;;;;
2022/04/30 00:09:49;;;;;;;10.7;7.65;;;;;;;7.22;51.50195;95576.2;;;;
2022/04/30 00:10:50;;;;;;;10.7;7.65;;;;;;;7.22;51.50195;95576.2;;;;
2022/04/30 00:11:51;;;;;;;10.7;7.65;;;;;;;7.22;51.50195;95576.2;;;;
2022/04/30 00:12:52;;;;;;;10.7;7.65;;;;;;;7.22;51.50195;95576.2;;;;
2022/04/30 00:13:53;;;;;;;10.7;7.65;;;;;;;7.22;51.50195;95576.2;;;;
2022/04/30 00:14:54;;;;;;;10.7;7.65;;;;;;;7.22;51.50195;95576.2;;;;
2022/04/30 00:15:54;;;;;;;8.599999;6.900001;;;;;;;7.18;51.76465;95578.99;;;;
2022/04/30 00:16:55;;;;;;;8.599999;6.900001;;;;;;;7.18;51.76465;95578.99;;;;
2022/04/30 00:17:56;;;;;;;8.599999;6.900001;;;;;;;7.18;51.76465;95578.99;;;;
2022/04/30 00:18:57;;;;;;;8.599999;6.900001;;;;;;;7.18;51.76465;95578.99;;;;
2022/04/30 00:19:58;;;;;;;8.599999;6.900001;;;;;;;7.18;51.76465;95578.99;;;;
2022/04/30 00:20:58;;;;;;;8.599999;6.900001;;;;;;;7.18;51.76465;95578.99;;;;
2022/04/30 00:21:59;;;;;;;8.599999;6.900001;;;;;;;7.18;51.76465;95578.99;;;;
2022/04/30 00:23:00;;;;;;;8.599999;6.900001;;;;;;;7.18;51.76465;95578.99;;;;
2022/04/30 00:24:00;;;;;;;8.599999;6.900001;;;;;;;7.18;51.76465;95578.99;;;;
2022/04/30 00:25:01;;;;;;;8.599999;6.900001;;;;;;;7.18;51.76465;95578.99;;;;
2022/04/30 00:26:03;;;;;;;8.949999;7.15;;;;;;;7.12;52.03516;95575.78;;;;
2022/04/30 00:27:03;;;;;;;8.949999;7.15;;;;;;;7.12;52.03516;95575.78;;;;
2022/04/30 00:28:04;;;;;;;8.949999;7.15;;;;;;;7.12;52.03516;95575.78;;;;
2022/04/30 00:29:05;;;;;;;8.949999;7.15;;;;;;;7.12;52.03516;95575.78;;;;
2022/04/30 00:30:05;;;;;;;8.949999;7.15;;;;;;;7.12;52.03516;95575.78;;;;
2022/04/30 00:31:07;;;;;;;8.949999;7.15;;;;;;;7.12;52.03516;95575.78;;;;
2022/04/30 00:32:08;;;;;;;8.949999;7.15;;;;;;;7.12;52.03516;95575.78;;;;
2022/04/30 00:33:09;;;;;;;8.949999;7.15;;;;;;;7.12;52.03516;95575.78;;;;
2022/04/30 00:34:10;;;;;;;8.949999;7.15;;;;;;;7.12;52.03516;95575.78;;;;
2022/04/30 00:35:11;;;;;;;8.949999;7.15;;;;;;;7.12;52.03516;95575.78;;;;
2022/04/30 00:36:11;;;;;;;8.949999;7.15;;;;;;;7.12;52.03516;95575.78;;;;
2022/04/30 00:37:11;;;;;;;8.25;7.200001;;;;;;;7.08;52.24316;95569.28;;;;
2022/04/30 00:38:12;;;;;;;8.25;7.200001;;;;;;;7.08;52.24316;95569.28;;;;
2022/04/30 00:39:12;;;;;;;8.25;7.200001;;;;;;;7.08;52.24316;95569.28;;;;
2022/04/30 00:40:13;;;;;;;8.25;7.200001;;;;;;;7.08;52.24316;95569.28;;;;
2022/04/30 00:41:14;;;;;;;8.25;7.200001;;;;;;;7.08;52.24316;95569.28;;;;
2022/04/30 00:42:15;;;;;;;8.25;7.200001;;;;;;;7.08;52.24316;95569.28;;;;
2022/04/30 00:43:16;;;;;;;8.25;7.200001;;;;;;;7.08;52.24316;95569.28;;;;
2022/04/30 00:44:16;;;;;;;8.25;7.200001;;;;;;;7.08;52.24316;95569.28;;;;
2022/04/30 00:45:18;;;;;;;8.25;7.200001;;;;;;;7.08;52.24316;95569.28;;;;
2022/04/30 00:46:18;;;;;;;8.25;7.200001;;;;;;;7.08;52.24316;95569.28;;;;
2022/04/30 00:47:20;;;;;;;9.899999;7;;;;;;;6.95;52.42969;95567.93;;;;
2022/04/30 00:48:21;;;;;;;9.899999;7;;;;;;;6.95;52.42969;95567.93;;;;
2022/04/30 00:49:21;;;;;;;9.899999;7;;;;;;;6.95;52.42969;95567.93;;;;
2022/04/30 00:50:22;;;;;;;9.899999;7;;;;;;;6.95;52.42969;95567.93;;;;
2022/04/30 00:51:27;;;;;;;9.899999;7;;;;;;;6.95;52.42969;95567.93;;;;
2022/04/30 00:52:29;;;;;;;9.899999;7;;;;;;;6.95;52.42969;95567.93;;;;
2022/04/30 00:53:30;;;;;;;9.899999;7;;;;;;;6.95;52.42969;95567.93;;;;
2022/04/30 00:54:33;;;;;;;9.899999;7;;;;;;;6.95;52.42969;95567.93;;;;
2022/04/30 00:55:37;;;;;;;9.899999;7;;;;;;;6.95;52.42969;95567.93;;;;
2022/04/30 00:56:41;;;;;;;9.899999;7;;;;;;;6.95;52.42969;95567.93;;;;
2022/04/30 00:57:47;;;;;;;9.899999;7;;;;;;;6.95;52.42969;95567.93;;;;
2022/04/30 00:58:53;;;;;;;9.1;7.249999;;;;;;;6.84;52.68555;95560.41;;;;
2022/04/30 00:59:55;;;;;;;9.1;7.249999;;;;;;;6.84;52.68555;95560.41;;;;
2022/04/30 01:00:59;;;;;;;9.1;7.249999;;;;;;;6.84;52.68555;95560.41;;;;
2022/04/30 01:02:01;;;;;;;9.1;7.249999;;;;;;;6.84;52.68555;95560.41;;;;
2022/04/30 01:03:01;;;;;;;9.1;7.249999;;;;;;;6.84;52.68555;95560.41;;;;
2022/04/30 01:04:03;;;;;;;9.1;7.249999;;;;;;;6.84;52.68555;95560.41;;;;
2022/04/30 01:05:04;;;;;;;9.1;7.249999;;;;;;;6.84;52.68555;95560.41;;;;
2022/04/30 01:06:06;;;;;;;9.1;7.249999;;;;;;;6.84;52.68555;95560.41;;;;
2022/04/30 01:07:06;;;;;;;9.1;7.249999;;;;;;;6.84;52.68555;95560.41;;;;
2022/04/30 01:08:09;;;;;;;9.1;7.249999;;;;;;;6.84;52.68555;95560.41;;;;
2022/04/30 01:09:09;;;;;;;8.25;6.649999;;;;;;;6.71;52.92383;95551;;;;
2022/04/30 01:10:09;;;;;;;8.25;6.649999;;;;;;;6.71;52.92383;95551;;;;
2022/04/30 01:11:10;;;;;;;8.25;6.649999;;;;;;;6.71;52.92383;95551;;;;
2022/04/30 01:12:12;;;;;;;8.25;6.649999;;;;;;;6.71;52.92383;95551;;;;
2022/04/30 01:13:14;;;;;;;8.25;6.649999;;;;;;;6.71;52.92383;95551;;;;
2022/04/30 01:14:15;;;;;;;8.25;6.649999;;;;;;;6.71;52.92383;95551;;;;
2022/04/30 01:15:16;;;;;;;8.25;6.649999;;;;;;;6.71;52.92383;95551;;;;
2022/04/30 01:16:18;;;;;;;8.25;6.649999;;;;;;;6.71;52.92383;95551;;;;
2022/04/30 01:17:18;;;;;;;8.25;6.649999;;;;;;;6.71;52.92383;95551;;;;
2022/04/30 01:18:20;;;;;;;8.25;6.649999;;;;;;;6.71;52.92383;95551;;;;
2022/04/30 01:19:22;;;;;;;8.649999;7.000001;;;;;;;6.55;53.24609;95547.38;;;;
2022/04/30 01:20:25;;;;;;;8.649999;7.000001;;;;;;;6.55;53.24609;95547.38;;;;
2022/04/30 01:21:27;;;;;;;8.649999;7.000001;;;;;;;6.55;53.24609;95547.38;;;;
2022/04/30 01:22:30;;;;;;;8.649999;7.000001;;;;;;;6.55;53.24609;95547.38;;;;
2022/04/30 01:23:36;;;;;;;8.649999;7.000001;;;;;;;6.55;53.24609;95547.38;;;;
2022/04/30 01:24:37;;;;;;;8.649999;7.000001;;;;;;;6.55;53.24609;95547.38;;;;
2022/04/30 01:25:38;;;;;;;8.649999;7.000001;;;;;;;6.55;53.24609;95547.38;;;;
2022/04/30 01:26:39;;;;;;;8.649999;7.000001;;;;;;;6.55;53.24609;95547.38;;;;
2022/04/30 01:27:40;;;;;;;8.649999;7.000001;;;;;;;6.55;53.24609;95547.38;;;;
2022/04/30 01:28:41;;;;;;;8.649999;7.000001;;;;;;;6.55;53.24609;95547.38;;;;
2022/04/30 01:29:43;;;;;;;8.649999;7.000001;;;;;;;6.55;53.24609;95547.38;;;;
2022/04/30 01:30:44;;;;;;;9.35;7.6;;;;;;;6.51;53.44434;95534.47;;;;
2022/04/30 01:37:29;;;;;;;9.35;7.6;;;;;;;6.51;53.44434;95534.47;;;;
2022/04/30 01:38:31;;;;;;;9.35;7.6;;;;;;;6.51;53.44434;95534.47;;;;
2022/04/30 01:39:32;;;;;;;9.35;7.6;;;;;;;6.51;53.44434;95534.47;;;;
2022/04/30 01:40:33;;;;;;;9.35;7.6;;;;;;;6.51;53.44434;95534.47;;;;
2022/04/30 01:41:33;;;;;;;9.299999;7.45;;;;;;;6.42;53.69922;95530.45;;;;
2022/04/30 01:42:35;;;;;;;9.299999;7.45;;;;;;;6.42;53.69922;95530.45;;;;
2022/04/30 01:43:39;;;;;;;9.299999;7.45;;;;;;;6.42;53.69922;95530.45;;;;
2022/04/30 01:44:40;;;;;;;9.299999;7.45;;;;;;;6.42;53.69922;95530.45;;;;
2022/04/30 01:45:43;;;;;;;9.299999;7.45;;;;;;;6.42;53.69922;95530.45;;;;
2022/04/30 01:46:45;;;;;;;9.299999;7.45;;;;;;;6.42;53.69922;95530.45;;;;
2022/04/30 01:47:46;;;;;;;9.299999;7.45;;;;;;;6.42;53.69922;95530.45;;;;
2022/04/30 01:48:48;;;;;;;9.299999;7.45;;;;;;;6.42;53.69922;95530.45;;;;
2022/04/30 01:49:48;;;;;;;9.299999;7.45;;;;;;;6.42;53.69922;95530.45;;;;
2022/04/30 01:50:49;;;;;;;9.299999;7.45;;;;;;;6.42;53.69922;95530.45;;;;
2022/04/30 01:51:49;;;;;;;9.299999;7.45;;;;;;;6.42;53.69922;95530.45;;;;
2022/04/30 01:52:50;;;;;;;9.299999;7.45;;;;;;;6.42;53.69922;95530.45;;;;
2022/04/30 01:53:51;;;;;;;9.299999;7.45;;;;;;;6.42;53.69922;95530.45;;;;
2022/04/30 01:54:51;;;;;;;9.299999;7.45;;;;;;;6.42;53.69922;95530.45;;;;
2022/04/30 01:55:52;;;;;;;9.299999;7.45;;;;;;;6.42;53.69922;95530.45;;;;
2022/04/30 01:56:52;;;;;;;9.299999;7.45;;;;;;;6.42;53.69922;95530.45;;;;
2022/04/30 01:57:53;;;;;;;9.299999;7.45;;;;;;;6.42;53.69922;95530.45;;;;
2022/04/30 01:58:53;;;;;;;9.299999;7.45;;;;;;;6.42;53.69922;95530.45;;;;
2022/04/30 01:59:53;;;;;;;9.299999;7.45;;;;;;;6.42;53.69922;95530.45;;;;
2022/04/30 02:00:54;;;;;;;9.299999;7.45;;;;;;;6.42;53.69922;95530.45;;;;
2022/04/30 02:01:55;;;;;;;9.299999;7.45;;;;;;;6.42;53.69922;95530.45;;;;
2022/04/30 02:02:56;;;;;;;7.900001;6.699999;;;;;;;6.33;54.10449;95510.11;;;;
2022/04/30 02:04:03;;;;;;;7.900001;6.699999;;;;;;;6.33;54.10449;95510.11;;;;
2022/04/30 02:05:05;;;;;;;7.900001;6.699999;;;;;;;6.33;54.10449;95510.11;;;;
2022/04/30 02:06:06;;;;;;;7.900001;6.699999;;;;;;;6.33;54.10449;95510.11;;;;
2022/04/30 02:07:08;;;;;;;7.900001;6.699999;;;;;;;6.33;54.10449;95510.11;;;;
2022/04/30 02:08:10;;;;;;;7.900001;6.699999;;;;;;;6.33;54.10449;95510.11;;;;
2022/04/30 02:09:14;;;;;;;7.900001;6.699999;;;;;;;6.33;54.10449;95510.11;;;;
2022/04/30 02:10:15;;;;;;;7.900001;6.699999;;;;;;;6.33;54.10449;95510.11;;;;
2022/04/30 02:11:16;;;;;;;7.900001;6.699999;;;;;;;6.33;54.10449;95510.11;;;;
2022/04/30 02:12:17;;;;;;;7.900001;6.699999;;;;;;;6.33;54.10449;95510.11;;;;
2022/04/30 02:13:18;;;;;;;7.349999;6.65;;;;;;;6.22;54.39844;95496.91;;;;
2022/04/30 02:14:22;;;;;;;7.349999;6.65;;;;;;;6.22;54.39844;95496.91;;;;
2022/04/30 02:15:24;;;;;;;7.349999;6.65;;;;;;;6.22;54.39844;95496.91;;;;
2022/04/30 02:16:27;;;;;;;7.349999;6.65;;;;;;;6.22;54.39844;95496.91;;;;
2022/04/30 02:17:30;;;;;;;7.349999;6.65;;;;;;;6.22;54.39844;95496.91;;;;
2022/04/30 02:18:34;;;;;;;7.349999;6.65;;;;;;;6.22;54.39844;95496.91;;;;
2022/04/30 02:20:18;;;;;;;7.349999;6.65;;;;;;;6.22;54.39844;95496.91;;;;
2022/04/30 02:21:21;;;;;;;7.349999;6.65;;;;;;;6.22;54.39844;95496.91;;;;
2022/04/30 02:22:22;;;;;;;7.349999;6.65;;;;;;;6.22;54.39844;95496.91;;;;
2022/04/30 02:23:23;;;;;;;7.349999;6.65;;;;;;;6.22;54.39844;95496.91;;;;
2022/04/30 02:24:24;;;;;;;9.300001;7.4;;;;;;;6.13;54.70703;95482.97;;;;
2022/04/30 02:25:25;;;;;;;9.300001;7.4;;;;;;;6.13;54.70703;95482.97;;;;
2022/04/30 02:26:27;;;;;;;9.300001;7.4;;;;;;;6.13;54.70703;95482.97;;;;
2022/04/30 02:27:28;;;;;;;9.300001;7.4;;;;;;;6.13;54.70703;95482.97;;;;
2022/04/30 02:28:29;;;;;;;9.300001;7.4;;;;;;;6.13;54.70703;95482.97;;;;
2022/04/30 02:29:30;;;;;;;9.300001;7.4;;;;;;;6.13;54.70703;95482.97;;;;
2022/04/30 02:30:31;;;;;;;9.300001;7.4;;;;;;;6.13;54.70703;95482.97;;;;
2022/04/30 02:31:34;;;;;;;9.300001;7.4;;;;;;;6.13;54.70703;95482.97;;;;
2022/04/30 02:32:34;;;;;;;9.300001;7.4;;;;;;;6.13;54.70703;95482.97;;;;
2022/04/30 02:33:40;;;;;;;9.300001;7.4;;;;;;;6.13;54.70703;95482.97;;;;
2022/04/30 02:34:40;;;;;;;10.25;7.5;;;;;;;6.02;54.92871;95466.05;;;;
2022/04/30 02:35:43;;;;;;;10.25;7.5;;;;;;;6.02;54.92871;95466.05;;;;
2022/04/30 02:36:44;;;;;;;10.25;7.5;;;;;;;6.02;54.92871;95466.05;;;;
2022/04/30 02:37:44;;;;;;;10.25;7.5;;;;;;;6.02;54.92871;95466.05;;;;
2022/04/30 02:38:46;;;;;;;10.25;7.5;;;;;;;6.02;54.92871;95466.05;;;;
2022/04/30 02:39:47;;;;;;;10.25;7.5;;;;;;;6.02;54.92871;95466.05;;;;
2022/04/30 02:40:47;;;;;;;10.25;7.5;;;;;;;6.02;54.92871;95466.05;;;;
2022/04/30 02:41:49;;;;;;;10.25;7.5;;;;;;;6.02;54.92871;95466.05;;;;
2022/04/30 02:42:51;;;;;;;10.25;7.5;;;;;;;6.02;54.92871;95466.05;;;;
2022/04/30 02:43:52;;;;;;;10.25;7.5;;;;;;;6.02;54.92871;95466.05;;;;
2022/04/30 02:44:52;;;;;;;10.25;7.5;;;;;;;6.02;54.92871;95466.05;;;;
2022/04/30 02:45:53;;;;;;;10.25;7.5;;;;;;;6.02;54.92871;95466.05;;;;
2022/04/30 02:46:53;;;;;;;10.25;7.5;;;;;;;6.02;54.92871;95466.05;;;;
2022/04/30 02:47:56;;;;;;;10.25;7.5;;;;;;;6.02;54.92871;95466.05;;;;
2022/04/30 02:48:57;;;;;;;10.25;7.5;;;;;;;6.02;54.92871;95466.05;;;;
2022/04/30 02:49:57;;;;;;;10.25;7.5;;;;;;;6.02;54.92871;95466.05;;;;
2022/04/30 02:51:00;;;;;;;10.25;7.5;;;;;;;6.02;54.92871;95466.05;;;;
2022/04/30 02:52:00;;;;;;;10.25;7.5;;;;;;;6.02;54.92871;95466.05;;;;
2022/04/30 02:53:01;;;;;;;10.25;7.5;;;;;;;6.02;54.92871;95466.05;;;;
2022/04/30 02:54:02;;;;;;;10.25;7.5;;;;;;;6.02;54.92871;95466.05;;;;
2022/04/30 02:55:03;;;;;;;10.25;7.5;;;;;;;6.02;54.92871;95466.05;;;;
2022/04/30 02:56:05;;;;;;;8.549998;7.2;;;;;;;5.86;55.53613;95458.39;;;;
2022/04/30 02:57:06;;;;;;;8.549998;7.2;;;;;;;5.86;55.53613;95458.39;;;;
2022/04/30 03:03:19;;;;;;;8.549998;7.2;;;;;;;5.86;55.53613;95458.39;;;;
2022/04/30 03:04:20;;;;;;;8.549998;7.2;;;;;;;5.86;55.53613;95458.39;;;;
2022/04/30 03:05:21;;;;;;;8.549998;7.2;;;;;;;5.86;55.53613;95458.39;;;;
2022/04/30 03:06:22;;;;;;;11.35;7.25;;;;;;;5.82;55.77539;95445.56;;;;
2022/04/30 03:07:23;;;;;;;11.35;7.25;;;;;;;5.82;55.77539;95445.56;;;;
2022/04/30 03:08:24;;;;;;;11.35;7.25;;;;;;;5.82;55.77539;95445.56;;;;
2022/04/30 03:09:26;;;;;;;11.35;7.25;;;;;;;5.82;55.77539;95445.56;;;;
2022/04/30 03:10:26;;;;;;;11.35;7.25;;;;;;;5.82;55.77539;95445.56;;;;
2022/04/30 03:11:27;;;;;;;11.35;7.25;;;;;;;5.82;55.77539;95445.56;;;;
2022/04/30 03:12:27;;;;;;;11.35;7.25;;;;;;;5.82;55.77539;95445.56;;;;
2022/04/30 03:13:28;;;;;;;11.35;7.25;;;;;;;5.82;55.77539;95445.56;;;;
2022/04/30 03:14:28;;;;;;;11.35;7.25;;;;;;;5.82;55.77539;95445.56;;;;
2022/04/30 03:15:30;;;;;;;11.35;7.25;;;;;;;5.82;55.77539;95445.56;;;;
2022/04/30 03:22:00;;;;;;;9.65;7.900001;;;;;;;5.78;56.00488;95426.79;;;;
2022/04/30 03:23:01;;;;;;;9.65;7.900001;;;;;;;5.78;56.00488;95426.79;;;;
2022/04/30 03:24:01;;;;;;;9.65;7.900001;;;;;;;5.78;56.00488;95426.79;;;;
2022/04/30 03:25:02;;;;;;;9.65;7.900001;;;;;;;5.78;56.00488;95426.79;;;;
2022/04/30 03:26:04;;;;;;;9.65;7.900001;;;;;;;5.78;56.00488;95426.79;;;;
2022/04/30 03:27:04;;;;;;;9.65;7.900001;;;;;;;5.78;56.00488;95426.79;;;;
2022/04/30 03:28:05;;;;;;;8.450001;7.299999;;;;;;;5.79;56.17578;95423.21;;;;
2022/04/30 03:29:06;;;;;;;8.450001;7.299999;;;;;;;5.79;56.17578;95423.21;;;;
2022/04/30 03:30:06;;;;;;;8.450001;7.299999;;;;;;;5.79;56.17578;95423.21;;;;
2022/04/30 03:31:09;;;;;;;8.450001;7.299999;;;;;;;5.79;56.17578;95423.21;;;;
2022/04/30 03:32:10;;;;;;;8.450001;7.299999;;;;;;;5.79;56.17578;95423.21;;;;
2022/04/30 03:33:11;;;;;;;8.450001;7.299999;;;;;;;5.79;56.17578;95423.21;;;;
2022/04/30 03:34:12;;;;;;;8.450001;7.299999;;;;;;;5.79;56.17578;95423.21;;;;
2022/04/30 03:35:13;;;;;;;8.450001;7.299999;;;;;;;5.79;56.17578;95423.21;;;;
2022/04/30 03:36:15;;;;;;;8.450001;7.299999;;;;;;;5.79;56.17578;95423.21;;;;
2022/04/30 03:37:15;;;;;;;8.450001;7.299999;;;;;;;5.79;56.17578;95423.21;;;;
2022/04/30 03:38:16;;;;;;;8.9;7.25;;;;;;;5.72;56.40039;95426.79;;;;
2022/04/30 03:39:16;;;;;;;8.9;7.25;;;;;;;5.72;56.40039;95426.79;;;;
2022/04/30 03:40:17;;;;;;;8.9;7.25;;;;;;;5.72;56.40039;95426.79;;;;
2022/04/30 03:41:17;;;;;;;8.9;7.25;;;;;;;5.72;56.40039;95426.79;;;;
2022/04/30 03:42:18;;;;;;;8.9;7.25;;;;;;;5.72;56.40039;95426.79;;;;
2022/04/30 03:43:18;;;;;;;8.9;7.25;;;;;;;5.72;56.40039;95426.79;;;;
2022/04/30 03:44:19;;;;;;;8.9;7.25;;;;;;;5.72;56.40039;95426.79;;;;
2022/04/30 03:45:20;;;;;;;8.9;7.25;;;;;;;5.72;56.40039;95426.79;;;;
2022/04/30 03:46:21;;;;;;;8.9;7.25;;;;;;;5.72;56.40039;95426.79;;;;
2022/04/30 03:47:22;;;;;;;8.9;7.25;;;;;;;5.72;56.40039;95426.79;;;;
2022/04/30 03:48:22;;;;;;;8.9;7.25;;;;;;;5.72;56.40039;95426.79;;;;
2022/04/30 03:49:23;;;;;;;8.35;7.150001;;;;;;;5.69;56.66211;95441.91;;;;
2022/04/30 03:50:23;;;;;;;8.35;7.150001;;;;;;;5.69;56.66211;95441.91;;;;
2022/04/30 03:51:24;;;;;;;8.35;7.150001;;;;;;;5.69;56.66211;95441.91;;;;
2022/04/30 03:52:24;;;;;;;8.35;7.150001;;;;;;;5.69;56.66211;95441.91;;;;
2022/04/30 03:53:25;;;;;;;8.35;7.150001;;;;;;;5.69;56.66211;95441.91;;;;
2022/04/30 03:54:25;;;;;;;8.35;7.150001;;;;;;;5.69;56.66211;95441.91;;;;
2022/04/30 03:55:26;;;;;;;8.35;7.150001;;;;;;;5.69;56.66211;95441.91;;;;
2022/04/30 03:56:27;;;;;;;8.35;7.150001;;;;;;;5.69;56.66211;95441.91;;;;
2022/04/30 03:57:28;;;;;;;8.35;7.150001;;;;;;;5.69;56.66211;95441.91;;;;
2022/04/30 03:58:29;;;;;;;8.35;7.150001;;;;;;;5.69;56.66211;95441.91;;;;
2022/04/30 03:59:30;;;;;;;8.35;7.150001;;;;;;;5.69;56.66211;95441.91;;;;
2022/04/30 04:00:30;;;;;;;8.35;7.150001;;;;;;;5.69;56.66211;95441.91;;;;
2022/04/30 04:01:32;;;;;;;8.35;7.150001;;;;;;;5.69;56.66211;95441.91;;;;
2022/04/30 04:02:33;;;;;;;8.35;7.150001;;;;;;;5.69;56.66211;95441.91;;;;
2022/04/30 04:03:33;;;;;;;8.35;7.150001;;;;;;;5.69;56.66211;95441.91;;;;
2022/04/30 04:04:34;;;;;;;8.35;7.150001;;;;;;;5.69;56.66211;95441.91;;;;
2022/04/30 04:05:34;;;;;;;8.35;7.150001;;;;;;;5.69;56.66211;95441.91;;;;
2022/04/30 04:06:35;;;;;;;8.35;7.150001;;;;;;;5.69;56.66211;95441.91;;;;
2022/04/30 04:07:35;;;;;;;8.35;7.150001;;;;;;;5.69;56.66211;95441.91;;;;
2022/04/30 04:08:36;;;;;;;8.35;7.150001;;;;;;;5.69;56.66211;95441.91;;;;
2022/04/30 04:09:36;;;;;;;8.35;7.150001;;;;;;;5.69;56.66211;95441.91;;;;
2022/04/30 04:10:37;;;;;;;8.799999;7.900001;;;;;;;5.76;56.85156;95445.01;;;;
2022/04/30 04:11:37;;;;;;;8.799999;7.900001;;;;;;;5.76;56.85156;95445.01;;;;
2022/04/30 04:12:38;;;;;;;8.799999;7.900001;;;;;;;5.76;56.85156;95445.01;;;;
2022/04/30 04:18:51;;;;;;;8.799999;7.900001;;;;;;;5.76;56.85156;95445.01;;;;
2022/04/30 04:19:52;;;;;;;8.799999;7.900001;;;;;;;5.76;56.85156;95445.01;;;;
2022/04/30 04:20:52;;;;;;;8.799999;7.900001;;;;;;;5.76;56.85156;95445.01;;;;
2022/04/30 04:21:53;;;;;;;8.799999;7.900001;;;;;;;5.76;56.85156;95445.01;;;;
2022/04/30 04:22:54;;;;;;;8.799999;7.900001;;;;;;;5.76;56.85156;95445.01;;;;
2022/04/30 04:29:10;;;;;;;8.799999;7.900001;;;;;;;5.76;56.85156;95445.01;;;;
2022/04/30 04:30:11;;;;;;;8.799999;7.900001;;;;;;;5.76;56.85156;95445.01;;;;
2022/04/30 04:31:11;;;;;;;8.799999;7.900001;;;;;;;5.76;56.85156;95445.01;;;;
2022/04/30 04:32:12;;;;;;;8.249999;7.349999;;;;;;;5.94;56.9502;95458.31;;;;
2022/04/30 04:33:12;;;;;;;8.249999;7.349999;;;;;;;5.94;56.9502;95458.31;;;;
2022/04/30 04:34:13;;;;;;;8.249999;7.349999;;;;;;;5.94;56.9502;95458.31;;;;
2022/04/30 04:35:14;;;;;;;8.249999;7.349999;;;;;;;5.94;56.9502;95458.31;;;;
2022/04/30 04:36:16;;;;;;;8.249999;7.349999;;;;;;;5.94;56.9502;95458.31;;;;
2022/04/30 04:37:16;;;;;;;8.249999;7.349999;;;;;;;5.94;56.9502;95458.31;;;;
2022/04/30 04:38:18;;;;;;;8.249999;7.349999;;;;;;;5.94;56.9502;95458.31;;;;
2022/04/30 04:39:19;;;;;;;8.249999;7.349999;;;;;;;5.94;56.9502;95458.31;;;;
2022/04/30 04:40:20;;;;;;;8.249999;7.349999;;;;;;;5.94;56.9502;95458.31;;;;
2022/04/30 04:41:20;;;;;;;8.249999;7.349999;;;;;;;5.94;56.9502;95458.31;;;;
2022/04/30 04:42:21;;;;;;;9.749999;8.35;;;;;;;6.09;57.08691;95458.94;;;;
2022/04/30 04:43:21;;;;;;;9.749999;8.35;;;;;;;6.09;57.08691;95458.94;;;;
2022/04/30 04:44:22;;;;;;;9.749999;8.35;;;;;;;6.09;57.08691;95458.94;;;;
2022/04/30 04:45:23;;;;;;;9.749999;8.35;;;;;;;6.09;57.08691;95458.94;;;;
2022/04/30 04:46:24;;;;;;;9.749999;8.35;;;;;;;6.09;57.08691;95458.94;;;;
2022/04/30 04:47:24;;;;;;;9.749999;8.35;;;;;;;6.09;57.08691;95458.94;;;;
2022/04/30 04:48:25;;;;;;;9.749999;8.35;;;;;;;6.09;57.08691;95458.94;;;;
2022/04/30 04:49:26;;;;;;;9.749999;8.35;;;;;;;6.09;57.08691;95458.94;;;;
2022/04/30 04:50:27;;;;;;;9.749999;8.35;;;;;;;6.09;57.08691;95458.94;;;;
2022/04/30 04:51:28;;;;;;;9.749999;8.35;;;;;;;6.09;57.08691;95458.94;;;;
2022/04/30 04:52:29;;;;;;;9.749999;8.35;;;;;;;6.09;57.08691;95458.94;;;;
2022/04/30 04:53:29;;;;;;;9.699999;7.599999;;;;;;;6.36;57.13379;95469.08;;;;
2022/04/30 04:54:30;;;;;;;9.699999;7.599999;;;;;;;6.36;57.13379;95469.08;;;;
2022/04/30 04:55:31;;;;;;;9.699999;7.599999;;;;;;;6.36;57.13379;95469.08;;;;
2022/04/30 04:56:31;;;;;;;9.699999;7.599999;;;;;;;6.36;57.13379;95469.08;;;;
2022/04/30 04:57:32;;;;;;;9.699999;7.599999;;;;;;;6.36;57.13379;95469.08;;;;
2022/04/30 04:58:32;;;;;;;9.699999;7.599999;;;;;;;6.36;57.13379;95469.08;;;;
2022/04/30 04:59:33;;;;;;;9.699999;7.599999;;;;;;;6.36;57.13379;95469.08;;;;
2022/04/30 05:00:33;;;;;;;9.699999;7.599999;;;;;;;6.36;57.13379;95469.08;;;;
2022/04/30 05:01:34;;;;;;;9.699999;7.599999;;;;;;;6.36;57.13379;95469.08;;;;
2022/04/30 05:02:35;;;;;;;9.699999;7.599999;;;;;;;6.36;57.13379;95469.08;;;;
2022/04/30 05:03:36;;;;;;;9.699999;7.599999;;;;;;;6.36;57.13379;95469.08;;;;
2022/04/30 05:04:36;;;;;;;8.799999;7.9;;;;;;;6.78;56.96582;95470.51;;;;
2022/04/30 05:05:37;;;;;;;8.799999;7.9;;;;;;;6.78;56.96582;95470.51;;;;
2022/04/30 05:06:37;;;;;;;8.799999;7.9;;;;;;;6.78;56.96582;95470.51;;;;
2022/04/30 05:07:38;;;;;;;8.799999;7.9;;;;;;;6.78;56.96582;95470.51;;;;
2022/04/30 05:08:38;;;;;;;8.799999;7.9;;;;;;;6.78;56.96582;95470.51;;;;
2022/04/30 05:09:39;;;;;;;8.799999;7.9;;;;;;;6.78;56.96582;95470.51;;;;
2022/04/30 05:10:39;;;;;;;8.799999;7.9;;;;;;;6.78;56.96582;95470.51;;;;
2022/04/30 05:11:39;;;;;;;8.799999;7.9;;;;;;;6.78;56.96582;95470.51;;;;
2022/04/30 05:12:43;;;;;;;8.799999;7.9;;;;;;;6.78;56.96582;95470.51;;;;
2022/04/30 05:13:43;;;;;;;8.799999;7.9;;;;;;;6.78;56.96582;95470.51;;;;
2022/04/30 05:14:45;;;;;;;8.949999;8.05;;;;;;;7.09;56.96387;95470.15;;;;
2022/04/30 05:15:46;;;;;;;8.949999;8.05;;;;;;;7.09;56.96387;95470.15;;;;
2022/04/30 05:16:47;;;;;;;8.949999;8.05;;;;;;;7.09;56.96387;95470.15;;;;
2022/04/30 05:17:48;;;;;;;8.949999;8.05;;;;;;;7.09;56.96387;95470.15;;;;
2022/04/30 05:18:48;;;;;;;8.949999;8.05;;;;;;;7.09;56.96387;95470.15;;;;
2022/04/30 05:19:48;;;;;;;8.949999;8.05;;;;;;;7.09;56.96387;95470.15;;;;
2022/04/30 05:20:49;;;;;;;8.949999;8.05;;;;;;;7.09;56.96387;95470.15;;;;
2022/04/30 05:21:50;;;;;;;8.949999;8.05;;;;;;;7.09;56.96387;95470.15;;;;
2022/04/30 05:22:50;;;;;;;8.949999;8.05;;;;;;;7.09;56.96387;95470.15;;;;
2022/04/30 05:23:51;;;;;;;8.949999;8.05;;;;;;;7.09;56.96387;95470.15;;;;
2022/04/30 05:24:51;;;;;;;8.949999;8.05;;;;;;;7.09;56.96387;95470.15;;;;
2022/04/30 05:25:54;;;;;;;9.349998;8.35;;;;;;;7.43;57.08398;95496.83;;;;
2022/04/30 05:26:54;;;;;;;9.349998;8.35;;;;;;;7.43;57.08398;95496.83;;;;
2022/04/30 05:27:55;;;;;;;9.349998;8.35;;;;;;;7.43;57.08398;95496.83;;;;
2022/04/30 05:28:55;;;;;;;9.349998;8.35;;;;;;;7.43;57.08398;95496.83;;;;
2022/04/30 05:29:55;;;;;;;9.349998;8.35;;;;;;;7.43;57.08398;95496.83;;;;
2022/04/30 05:30:56;;;;;;;9.349998;8.35;;;;;;;7.43;57.08398;95496.83;;;;
2022/04/30 05:31:56;;;;;;;9.349998;8.35;;;;;;;7.43;57.08398;95496.83;;;;
2022/04/30 05:32:57;;;;;;;9.349998;8.35;;;;;;;7.43;57.08398;95496.83;;;;
2022/04/30 05:33:57;;;;;;;9.349998;8.35;;;;;;;7.43;57.08398;95496.83;;;;
2022/04/30 05:34:58;;;;;;;9.349998;8.35;;;;;;;7.43;57.08398;95496.83;;;;
2022/04/30 05:35:58;;;;;;;9.349998;8.35;;;;;;;7.43;57.08398;95496.83;;;;
2022/04/30 05:36:59;;;;;;;9.349998;8.35;;;;;;;7.43;57.08398;95496.83;;;;
2022/04/30 05:37:59;;;;;;;9.349998;8.35;;;;;;;7.43;57.08398;95496.83;;;;
2022/04/30 05:39:00;;;;;;;9.349998;8.35;;;;;;;7.43;57.08398;95496.83;;;;
2022/04/30 05:40:00;;;;;;;9.349998;8.35;;;;;;;7.43;57.08398;95496.83;;;;
2022/04/30 05:41:01;;;;;;;9.349998;8.35;;;;;;;7.43;57.08398;95496.83;;;;
2022/04/30 05:42:02;;;;;;;9.349998;8.35;;;;;;;7.43;57.08398;95496.83;;;;
2022/04/30 05:43:02;;;;;;;9.349998;8.35;;;;;;;7.43;57.08398;95496.83;;;;
2022/04/30 05:44:03;;;;;;;9.349998;8.35;;;;;;;7.43;57.08398;95496.83;;;;
2022/04/30 05:45:04;;;;;;;9.349998;8.35;;;;;;;7.43;57.08398;95496.83;;;;
2022/04/30 05:46:07;;;;;;;9.349998;8.35;;;;;;;7.43;57.08398;95496.83;;;;
2022/04/30 05:47:07;;;;;;;11.15;8.700002;;;;;;;8.02;57.39746;95513.93;;;;
2022/04/30 05:48:08;;;;;;;11.15;8.700002;;;;;;;8.02;57.39746;95513.93;;;;
2022/04/30 05:49:08;;;;;;;11.15;8.700002;;;;;;;8.02;57.39746;95513.93;;;;
2022/04/30 05:50:09;;;;;;;11.15;8.700002;;;;;;;8.02;57.39746;95513.93;;;;
2022/04/30 05:51:10;;;;;;;11.15;8.700002;;;;;;;8.02;57.39746;95513.93;;;;
2022/04/30 05:52:11;;;;;;;11.15;8.700002;;;;;;;8.02;57.39746;95513.93;;;;
2022/04/30 05:53:12;;;;;;;11.15;8.700002;;;;;;;8.02;57.39746;95513.93;;;;
2022/04/30 05:54:12;;;;;;;11.15;8.700002;;;;;;;8.02;57.39746;95513.93;;;;
2022/04/30 05:55:13;;;;;;;11.15;8.700002;;;;;;;8.02;57.39746;95513.93;;;;
2022/04/30 05:56:13;;;;;;;11.15;8.700002;;;;;;;8.02;57.39746;95513.93;;;;
2022/04/30 05:57:14;;;;;;;11.2;9.1;;;;;;;8.49;57.29785;95505;;;;
2022/04/30 05:58:14;;;;;;;11.2;9.1;;;;;;;8.49;57.29785;95505;;;;
2022/04/30 05:59:15;;;;;;;11.2;9.1;;;;;;;8.49;57.29785;95505;;;;